Time;durP1;ratioP1;P1;durP2;ratioP2;P2;SDS_P1;SDS_P2;PMS_P1;PMS_P2;Temp;Humidity;BMP_temperature;BMP_pressure;BME280_temperature;BME280_humidity;BME280_pressure;Samples;Min_cycle;Max_cycle;Signal;HPM_P1;HPM_P2
2021/12/30 00:00:16;;;;;;;0.10;0.10;;;;;;;9.03;90.37;101155.16;5056700;28;20055;-77
2021/12/30 00:02:41;;;;;;;0.20;0.20;;;;;;;9.05;90.48;101150.00;5055259;28;20351;-76
2021/12/30 00:05:07;;;;;;;0.07;0.07;;;;;;;9.06;90.43;101149.19;5070540;28;20056;-77
2021/12/30 00:07:33;;;;;;;0.13;0.13;;;;;;;9.02;90.21;101147.28;5057398;28;20023;-77
2021/12/30 00:09:58;;;;;;;0.03;0.03;;;;;;;9.01;90.41;101159.44;5057311;28;20116;-76
2021/12/30 00:12:24;;;;;;;0.77;0.77;;;;;;;9.06;90.44;101150.06;5056665;28;20067;-76
2021/12/30 00:14:49;;;;;;;0.10;0.10;;;;;;;9.09;90.50;101157.13;5056954;28;20110;-77
2021/12/30 00:17:15;;;;;;;0.20;0.20;;;;;;;9.11;90.53;101151.97;5051448;28;20036;-77
2021/12/30 00:19:40;;;;;;;0.20;0.20;;;;;;;9.16;90.15;101155.66;5057093;28;20144;-76
2021/12/30 00:22:05;;;;;;;0.20;0.20;;;;;;;9.15;90.15;101149.53;5057323;28;20351;-77
2021/12/30 00:24:31;;;;;;;0.10;0.10;;;;;;;9.15;90.37;101157.38;5055122;28;20677;-78
2021/12/30 00:26:57;;;;;;;0.20;0.20;;;;;;;9.17;90.46;101147.00;5041568;28;20029;-76
2021/12/30 00:29:24;;;;;;;0.30;0.30;;;;;;;9.19;90.57;101147.94;5055796;28;20682;-77
2021/12/30 00:31:49;;;;;;;0.20;0.20;;;;;;;9.18;90.61;101149.66;5061534;28;20047;-78
2021/12/30 00:34:14;;;;;;;0.10;0.10;;;;;;;9.19;90.63;101151.44;5058414;28;20024;-77
2021/12/30 00:36:41;;;;;;;0.10;0.10;;;;;;;9.22;91.10;101150.69;5057441;28;20403;-77
2021/12/30 00:39:06;;;;;;;1.20;1.03;;;;;;;9.31;90.94;101168.41;5056502;28;20116;-77
2021/12/30 00:41:32;;;;;;;0.10;0.10;;;;;;;9.33;90.83;101164.13;5057577;28;20352;-77
2021/12/30 00:43:57;;;;;;;0.10;0.10;;;;;;;9.40;91.25;101153.09;5052899;28;20036;-76
2021/12/30 00:46:23;;;;;;;0.10;0.10;;;;;;;9.51;91.05;101163.09;5056626;28;20044;-78
2021/12/30 00:48:48;;;;;;;0.17;0.17;;;;;;;9.55;90.83;101157.13;5056635;28;20099;-75
2021/12/30 00:51:14;;;;;;;0.10;0.10;;;;;;;9.60;90.87;101158.19;5056073;28;20043;-78
2021/12/30 00:53:41;;;;;;;0.10;0.10;;;;;;;9.64;90.87;101153.97;5051189;28;20049;-77
2021/12/30 00:56:06;;;;;;;0.10;0.10;;;;;;;9.73;90.82;101149.06;5056659;28;20028;-76
2021/12/30 00:58:31;;;;;;;0.10;0.10;;;;;;;9.78;90.98;101157.09;5056424;28;20032;-77
2021/12/30 01:00:59;;;;;;;0.03;0.03;;;;;;;9.82;91.00;101154.66;5055775;28;20032;-79
2021/12/30 01:03:25;;;;;;;0.10;0.10;;;;;;;9.84;90.88;101146.88;5054687;28;20025;-76
2021/12/30 01:05:50;;;;;;;0.10;0.10;;;;;;;9.89;90.92;101147.91;5070365;28;20304;-77
2021/12/30 01:08:16;;;;;;;0.10;0.10;;;;;;;9.96;90.92;101149.91;5056000;28;20302;-78
2021/12/30 01:10:42;;;;;;;0.00;0.00;;;;;;;9.98;90.80;101150.88;5055665;28;20030;-77
2021/12/30 01:13:15;;;;;;;0.10;0.10;;;;;;;10.02;90.70;101139.66;5054497;28;20371;-76
2021/12/30 01:16:16;;;;;;;0.10;0.10;;;;;;;10.03;90.57;101143.19;5040125;28;20307;-80
2021/12/30 01:21:06;;;;;;;0.10;0.10;;;;;;;9.97;90.32;101140.34;5072436;28;20082;-78
2021/12/30 01:23:32;;;;;;;0.00;0.00;;;;;;;9.98;90.41;101157.81;5051953;28;20327;-78
2021/12/30 01:25:57;;;;;;;0.10;0.10;;;;;;;9.94;90.90;101159.44;5046533;28;20075;-77
2021/12/30 01:28:24;;;;;;;0.10;0.10;;;;;;;9.96;90.56;101169.97;5059502;28;20028;-77
2021/12/30 01:30:50;;;;;;;0.10;0.10;;;;;;;9.96;90.53;101175.19;5061383;28;20063;-78
2021/12/30 01:33:17;;;;;;;0.63;0.30;;;;;;;9.88;90.35;101175.78;5051770;28;20057;-76
2021/12/30 01:35:42;;;;;;;0.10;0.10;;;;;;;9.93;90.79;101188.13;5055249;28;20021;-79
2021/12/30 01:38:11;;;;;;;0.13;0.13;;;;;;;9.95;90.90;101189.97;5063748;28;20020;-77
2021/12/30 01:40:39;;;;;;;0.10;0.10;;;;;;;9.99;90.83;101207.59;5059992;28;20098;-78
2021/12/30 01:43:05;;;;;;;0.10;0.10;;;;;;;9.99;90.93;101204.97;5044314;28;20411;-79
2021/12/30 01:45:30;;;;;;;0.10;0.10;;;;;;;9.97;90.85;101203.13;5042590;28;20064;-77
2021/12/30 01:47:57;;;;;;;0.30;0.30;;;;;;;9.99;90.91;101193.59;5048443;28;20284;-79
2021/12/30 01:50:24;;;;;;;0.10;0.10;;;;;;;10.03;90.79;101198.13;5049130;28;20322;-77
2021/12/30 01:52:49;;;;;;;0.10;0.10;;;;;;;10.00;90.99;101196.28;5050555;28;20287;-75
2021/12/30 01:55:16;;;;;;;0.20;0.20;;;;;;;9.97;91.04;101204.00;5058621;28;20028;-75
2021/12/30 01:57:41;;;;;;;0.10;0.10;;;;;;;10.06;91.05;101210.41;5062057;28;20036;-77
2021/12/30 02:00:09;;;;;;;0.10;0.10;;;;;;;10.12;91.03;101208.00;5060989;28;20077;-77
2021/12/30 02:02:34;;;;;;;0.10;0.10;;;;;;;10.19;90.88;101190.81;5041358;28;20033;-79
2021/12/30 02:05:00;;;;;;;0.10;0.10;;;;;;;10.17;90.80;101199.47;5041341;28;20091;-78
2021/12/30 02:07:25;;;;;;;0.10;0.10;;;;;;;10.15;90.82;101214.25;5043022;28;20117;-78
2021/12/30 02:09:53;;;;;;;0.00;0.00;;;;;;;10.16;90.94;101205.56;5039860;28;20060;-77
2021/12/30 02:12:19;;;;;;;0.10;0.10;;;;;;;10.22;90.83;101209.25;5040532;28;20033;-75
2021/12/30 02:14:44;;;;;;;0.10;0.10;;;;;;;10.25;90.59;101206.72;5055226;28;20032;-77
2021/12/30 02:17:09;;;;;;;0.10;0.10;;;;;;;10.31;90.86;101200.00;5059762;28;20031;-76
2021/12/30 02:19:35;;;;;;;0.13;0.13;;;;;;;10.29;90.69;101192.94;5059854;28;20056;-78
2021/12/30 02:22:00;;;;;;;0.10;0.10;;;;;;;10.27;90.45;101189.38;5059424;28;20109;-76
2021/12/30 02:24:25;;;;;;;0.10;0.10;;;;;;;10.28;90.75;101189.41;5061102;28;20353;-77
2021/12/30 02:26:52;;;;;;;0.20;0.20;;;;;;;10.35;90.72;101190.53;5060327;28;20033;-76
2021/12/30 02:29:17;;;;;;;0.10;0.10;;;;;;;10.35;90.60;101202.72;5060733;28;20371;-74
2021/12/30 02:31:43;;;;;;;0.00;0.00;;;;;;;10.36;90.77;101201.88;5043022;28;20056;-73
2021/12/30 02:34:08;;;;;;;0.03;0.03;;;;;;;10.31;90.77;101207.84;5040256;28;20073;-75
2021/12/30 02:36:36;;;;;;;0.00;0.00;;;;;;;10.34;90.76;101216.66;5046548;28;20064;-75
2021/12/30 02:39:07;;;;;;;0.10;0.10;;;;;;;10.33;90.68;101217.47;5060244;28;20060;-75
2021/12/30 02:41:34;;;;;;;0.10;0.10;;;;;;;10.31;90.99;101223.56;5060233;28;20104;-74
2021/12/30 02:44:01;;;;;;;0.10;0.10;;;;;;;10.31;90.91;101228.78;5060211;28;20373;-73
2021/12/30 02:46:28;;;;;;;0.10;0.10;;;;;;;10.34;90.97;101227.13;5058047;28;20036;-74
2021/12/30 02:48:55;;;;;;;0.00;0.00;;;;;;;10.40;90.78;101229.97;5040468;28;20033;-72
2021/12/30 02:51:21;;;;;;;0.10;0.10;;;;;;;10.36;90.73;101226.34;5056392;28;20295;-74
2021/12/30 02:53:47;;;;;;;0.10;0.10;;;;;;;10.39;90.62;101234.28;5060068;28;20029;-74
2021/12/30 02:56:12;;;;;;;0.10;0.10;;;;;;;10.41;90.63;101219.50;5059113;28;20021;-76
2021/12/30 02:58:37;;;;;;;0.10;0.10;;;;;;;10.42;90.83;101223.94;5058790;28;20025;-77
2021/12/30 03:01:12;;;;;;;0.10;0.10;;;;;;;10.48;90.95;101223.28;5058476;28;20089;-73
2021/12/30 03:03:37;;;;;;;0.00;0.00;;;;;;;10.46;90.73;101210.97;5059801;28;20155;-73
2021/12/30 03:06:05;;;;;;;0.10;0.10;;;;;;;10.46;90.73;101214.47;5060692;28;20028;-74
2021/12/30 03:08:31;;;;;;;0.10;0.10;;;;;;;10.44;91.01;101197.81;5059864;28;20041;-72
2021/12/30 03:10:56;;;;;;;0.10;0.10;;;;;;;10.48;90.97;101217.16;5048086;28;20468;-73
2021/12/30 03:13:35;;;;;;;0.10;0.10;;;;;;;10.52;90.51;101205.97;5040071;28;20017;-74
2021/12/30 03:16:03;;;;;;;1.03;1.03;;;;;;;10.47;90.96;101207.53;5040139;28;20021;-74
2021/12/30 03:18:30;;;;;;;0.00;0.00;;;;;;;10.43;90.95;101203.91;5040794;28;20025;-74
2021/12/30 03:20:56;;;;;;;0.10;0.10;;;;;;;10.44;91.25;101213.53;5051876;28;20383;-75
2021/12/30 03:23:22;;;;;;;0.10;0.10;;;;;;;10.44;91.01;101213.53;5059544;28;20059;-74
2021/12/30 03:25:47;;;;;;;0.40;0.20;;;;;;;10.41;91.29;101203.81;5058661;28;20033;-73
2021/12/30 03:28:13;;;;;;;0.10;0.10;;;;;;;10.43;91.14;101214.38;5059559;28;20079;-74
2021/12/30 03:30:38;;;;;;;0.00;0.00;;;;;;;10.43;91.18;101224.84;5049053;28;20057;-72
2021/12/30 03:33:05;;;;;;;0.10;0.10;;;;;;;10.40;91.39;101204.66;5039270;28;20025;-76
2021/12/30 03:35:30;;;;;;;0.10;0.10;;;;;;;10.41;91.26;101200.31;5039200;28;20025;-78
2021/12/30 03:37:57;;;;;;;0.10;0.10;;;;;;;10.43;91.35;101230.09;5039613;28;20026;-75
2021/12/30 03:40:22;;;;;;;0.07;0.07;;;;;;;10.40;91.41;101222.97;5044691;28;20078;-75
2021/12/30 03:42:48;;;;;;;0.10;0.10;;;;;;;10.37;91.43;101238.59;5058958;28;20029;-78
2021/12/30 03:45:14;;;;;;;0.10;0.10;;;;;;;10.36;91.63;101243.75;5058658;28;20371;-74
2021/12/30 03:47:43;;;;;;;0.00;0.00;;;;;;;10.33;92.06;101247.16;5058991;28;20013;-75
2021/12/30 03:50:13;;;;;;;0.10;0.10;;;;;;;10.29;91.71;101238.28;5055489;28;20064;-75
2021/12/30 03:52:39;;;;;;;0.10;0.10;;;;;;;10.30;91.65;101252.28;5039105;28;20021;-74
2021/12/30 03:55:05;;;;;;;0.00;0.00;;;;;;;10.33;91.55;101241.03;5053406;28;20035;-73
2021/12/30 03:57:31;;;;;;;0.07;0.07;;;;;;;10.33;91.57;101239.28;5058707;28;20017;-73
2021/12/30 03:59:56;;;;;;;0.07;0.07;;;;;;;10.33;91.61;101231.44;5058340;28;20439;-76
2021/12/30 04:02:21;;;;;;;0.07;0.07;;;;;;;10.35;91.60;101241.97;5058539;28;20036;-77
2021/12/30 04:04:47;;;;;;;0.10;0.10;;;;;;;10.37;91.62;101230.72;5058823;28;20100;-77
2021/12/30 04:07:12;;;;;;;0.10;0.10;;;;;;;10.40;91.45;101228.22;5058805;28;20067;-74
2021/12/30 04:09:37;;;;;;;0.00;0.00;;;;;;;10.40;91.55;101225.59;5057426;28;20264;-75
2021/12/30 04:12:04;;;;;;;0.10;0.10;;;;;;;10.42;91.51;101223.06;5038321;28;20133;-75
2021/12/30 04:14:29;;;;;;;0.10;0.10;;;;;;;10.44;91.49;101237.09;5038346;28;20028;-73
2021/12/30 04:16:55;;;;;;;0.10;0.10;;;;;;;10.44;91.03;101234.47;5038191;28;20025;-73
2021/12/30 04:19:21;;;;;;;0.10;0.10;;;;;;;10.43;91.03;101240.56;5038517;28;20100;-74
2021/12/30 04:21:46;;;;;;;0.33;0.33;;;;;;;10.46;90.89;101237.16;5053266;28;20463;-75
2021/12/30 04:24:12;;;;;;;0.10;0.10;;;;;;;10.42;90.85;101239.66;5058200;28;20044;-73
2021/12/30 04:26:37;;;;;;;0.10;0.10;;;;;;;10.43;90.92;101232.69;5058051;28;20051;-74
2021/12/30 04:29:04;;;;;;;0.00;0.00;;;;;;;10.40;90.60;101245.66;5058560;28;20062;-77
2021/12/30 04:31:30;;;;;;;0.10;0.10;;;;;;;10.39;90.68;101236.91;5044134;28;20296;-75
2021/12/30 04:33:56;;;;;;;0.53;0.53;;;;;;;10.34;90.63;101250.66;5037970;28;20022;-76
2021/12/30 04:36:22;;;;;;;0.10;0.10;;;;;;;10.37;90.69;101240.28;5038236;28;20407;-77
2021/12/30 04:38:47;;;;;;;0.10;0.10;;;;;;;10.41;90.78;101231.72;5037921;28;20026;-73
2021/12/30 04:41:13;;;;;;;0.20;0.20;;;;;;;10.39;90.58;101238.66;5048568;28;20100;-75
2021/12/30 04:43:39;;;;;;;0.13;0.13;;;;;;;10.37;90.51;101241.19;5057755;28;20029;-75
2021/12/30 04:46:05;;;;;;;0.10;0.10;;;;;;;10.39;90.60;101236.03;5057452;28;20028;-76
2021/12/30 04:48:30;;;;;;;0.10;0.10;;;;;;;10.45;90.72;101233.63;5057895;28;20415;-73
2021/12/30 04:50:56;;;;;;;0.10;0.10;;;;;;;10.41;90.97;101232.59;5050591;28;20021;-78
2021/12/30 04:53:21;;;;;;;0.20;0.20;;;;;;;10.42;90.32;101238.78;5038182;28;20049;-76
2021/12/30 04:55:47;;;;;;;0.13;0.13;;;;;;;10.44;90.57;101222.28;5057937;28;20066;-77
2021/12/30 04:58:14;;;;;;;0.10;0.10;;;;;;;10.42;90.15;101234.41;5058225;28;20025;-76
2021/12/30 05:00:40;;;;;;;0.10;0.10;;;;;;;10.35;90.18;101237.66;5056697;28;20375;-76
2021/12/30 05:03:10;;;;;;;0.20;0.20;;;;;;;10.30;90.55;101244.44;5058825;28;20075;-77
2021/12/30 05:05:41;;;;;;;0.20;0.20;;;;;;;10.29;90.38;101233.06;5059120;28;20045;-77
2021/12/30 05:08:07;;;;;;;0.10;0.10;;;;;;;10.34;90.46;101240.19;5058230;28;20021;-72
2021/12/30 05:10:33;;;;;;;0.20;0.20;;;;;;;10.35;90.99;101244.59;5053210;28;20125;-75
2021/12/30 05:13:00;;;;;;;0.30;0.30;;;;;;;10.39;90.64;101234.28;5037710;28;20075;-77
2021/12/30 05:15:25;;;;;;;0.10;0.10;;;;;;;10.38;90.59;101229.88;5037788;28;20022;-78
2021/12/30 05:17:50;;;;;;;0.03;0.03;;;;;;;10.39;90.66;101238.66;5037955;28;20096;-77
2021/12/30 05:20:16;;;;;;;0.00;0.00;;;;;;;10.40;90.52;101249.16;5037870;28;20026;-76
2021/12/30 05:22:42;;;;;;;0.10;0.10;;;;;;;10.47;90.89;101249.41;5036613;28;20395;-76
2021/12/30 05:25:12;;;;;;;0.10;0.10;;;;;;;10.50;90.67;101255.66;5037159;28;20033;-80
2021/12/30 05:27:38;;;;;;;0.10;0.10;;;;;;;10.57;90.33;101248.88;5036196;28;20029;-78
2021/12/30 05:30:05;;;;;;;0.10;0.10;;;;;;;10.53;90.37;101245.28;5037128;28;20025;-73
2021/12/30 05:32:31;;;;;;;0.10;0.10;;;;;;;10.55;90.15;101247.94;5056302;28;20036;-76
2021/12/30 05:34:56;;;;;;;0.10;0.10;;;;;;;10.57;90.32;101235.78;5057169;28;20085;-74
2021/12/30 05:37:21;;;;;;;0.20;0.20;;;;;;;10.59;90.05;101226.28;5058376;28;20029;-78
2021/12/30 05:39:47;;;;;;;0.10;0.10;;;;;;;10.57;89.95;101227.94;5057774;28;20029;-73
2021/12/30 05:42:12;;;;;;;0.10;0.10;;;;;;;10.60;90.24;101217.59;5040361;28;20033;-72
2021/12/30 05:44:38;;;;;;;0.10;0.10;;;;;;;10.67;90.42;101242.25;5038224;28;20037;-78
2021/12/30 05:47:04;;;;;;;0.10;0.10;;;;;;;10.67;89.63;101230.06;5038361;28;20025;-80
2021/12/30 05:49:29;;;;;;;0.10;0.10;;;;;;;10.71;89.80;101247.63;5020184;28;20029;-77
2021/12/30 05:51:55;;;;;;;0.10;0.10;;;;;;;10.72;89.93;101264.25;5050661;28;20029;-76
2021/12/30 05:54:20;;;;;;;0.20;0.20;;;;;;;10.79;89.62;101276.75;5057321;28;20025;-80
2021/12/30 05:56:45;;;;;;;0.10;0.10;;;;;;;10.81;89.56;101279.38;5061299;28;20040;-80
2021/12/30 05:59:11;;;;;;;0.00;0.00;;;;;;;10.76;89.82;101275.75;5062620;28;20296;-76
2021/12/30 06:01:36;;;;;;;0.10;0.10;;;;;;;10.79;89.69;101278.44;5056110;28;20037;-76
2021/12/30 06:04:02;;;;;;;0.10;0.10;;;;;;;10.85;89.73;101273.44;5056907;28;20058;-75
2021/12/30 06:06:27;;;;;;;0.10;0.10;;;;;;;10.90;89.61;101269.22;5056694;28;20053;-76
2021/12/30 06:08:53;;;;;;;0.10;0.10;;;;;;;10.91;89.59;101273.66;5056927;28;20027;-75
2021/12/30 06:11:18;;;;;;;0.10;0.10;;;;;;;10.92;89.62;101277.13;5048373;28;20287;-75
2021/12/30 06:13:44;;;;;;;0.00;0.00;;;;;;;10.92;89.58;101274.53;5035682;28;20037;-73
2021/12/30 06:16:09;;;;;;;0.10;0.10;;;;;;;10.94;89.54;101278.97;5036740;28;20025;-76
2021/12/30 06:18:34;;;;;;;0.30;0.30;;;;;;;10.92;89.40;101288.53;5036853;28;20041;-78
2021/12/30 06:21:00;;;;;;;0.20;0.20;;;;;;;10.90;89.62;101284.94;5041133;28;20033;-81
2021/12/30 06:23:25;;;;;;;0.00;0.00;;;;;;;10.98;89.70;101288.72;5055740;28;20043;-75
2021/12/30 06:25:50;;;;;;;0.10;0.10;;;;;;;10.98;89.50;101274.72;5055859;28;20028;-73
2021/12/30 06:28:16;;;;;;;0.20;0.20;;;;;;;10.97;89.19;101275.56;5056618;28;20021;-74
2021/12/30 06:30:41;;;;;;;0.10;0.10;;;;;;;10.96;89.11;101277.28;5054525;28;20021;-77
2021/12/30 06:33:07;;;;;;;0.20;0.20;;;;;;;10.98;89.29;101293.06;5037262;28;20060;-75
2021/12/30 06:35:34;;;;;;;0.10;0.10;;;;;;;10.98;89.17;101272.13;5039824;28;20083;-76
2021/12/30 06:38:00;;;;;;;0.00;0.00;;;;;;;10.99;89.03;101295.75;5040527;28;20265;-74
2021/12/30 06:40:25;;;;;;;0.10;0.10;;;;;;;10.97;88.80;101293.91;5042868;28;20021;-76
2021/12/30 06:42:51;;;;;;;0.10;0.10;;;;;;;10.94;89.22;101307.81;5060297;28;20292;-78
2021/12/30 06:45:16;;;;;;;0.20;0.20;;;;;;;10.92;89.23;101312.09;5059885;28;20062;-78
2021/12/30 06:47:45;;;;;;;0.20;0.20;;;;;;;10.90;89.28;101319.00;5060288;28;20138;-79
2021/12/30 06:50:12;;;;;;;0.10;0.10;;;;;;;10.85;89.19;101317.97;5060105;28;20430;-76
2021/12/30 06:52:38;;;;;;;0.10;0.10;;;;;;;10.82;89.53;101336.19;5059291;28;20025;-77
2021/12/30 06:55:04;;;;;;;0.10;0.10;;;;;;;10.80;89.65;101332.63;5060146;28;20075;-77
2021/12/30 06:57:29;;;;;;;0.10;0.10;;;;;;;10.79;89.74;101346.56;5059663;28;20311;-77
2021/12/30 06:59:55;;;;;;;0.10;0.10;;;;;;;10.76;89.91;101336.84;5059512;28;20040;-76
2021/12/30 07:02:21;;;;;;;0.10;0.10;;;;;;;10.71;89.99;101320.09;5058077;28;20298;-76
2021/12/30 07:04:46;;;;;;;0.10;0.10;;;;;;;10.74;89.50;101329.78;5059793;28;20036;-77
2021/12/30 07:07:11;;;;;;;0.10;0.10;;;;;;;10.67;90.00;101333.91;5059818;28;20066;-76
2021/12/30 07:09:37;;;;;;;0.10;0.10;;;;;;;10.63;90.17;101337.28;5056961;28;20067;-74
2021/12/30 07:12:02;;;;;;;0.10;0.10;;;;;;;10.65;90.44;101333.84;5039086;28;20029;-71
2021/12/30 07:14:29;;;;;;;0.10;0.10;;;;;;;10.66;90.31;101309.44;5038595;28;20388;-77
2021/12/30 07:16:54;;;;;;;0.10;0.10;;;;;;;10.65;90.46;101320.75;5038676;28;20030;-80
2021/12/30 07:19:20;;;;;;;0.30;0.30;;;;;;;10.58;90.24;101321.38;5039901;28;20045;-79
2021/12/30 07:21:45;;;;;;;0.20;0.20;;;;;;;10.53;90.52;101322.94;5057299;28;20024;-73
2021/12/30 07:24:11;;;;;;;0.20;0.20;;;;;;;10.53;90.63;101341.28;5059605;28;20299;-76
2021/12/30 07:26:36;;;;;;;0.10;0.10;;;;;;;10.57;90.66;101333.59;5058846;28;20036;-75
2021/12/30 07:29:03;;;;;;;0.10;0.10;;;;;;;10.57;90.56;101345.78;5059540;28;20048;-75
2021/12/30 07:31:28;;;;;;;0.00;0.00;;;;;;;10.54;90.31;101353.53;5042950;28;20033;-78
2021/12/30 07:33:54;;;;;;;0.07;0.07;;;;;;;10.52;90.42;101361.31;5039508;28;20485;-75
2021/12/30 07:36:20;;;;;;;0.10;0.10;;;;;;;10.50;90.34;101356.84;5041021;28;20021;-71
2021/12/30 07:38:47;;;;;;;0.10;0.10;;;;;;;10.53;90.27;101362.22;5040068;28;20079;-79
2021/12/30 07:41:12;;;;;;;0.20;0.20;;;;;;;10.54;90.16;101384.97;5041204;28;20032;-78
2021/12/30 07:43:38;;;;;;;0.10;0.10;;;;;;;10.52;90.13;101390.13;5038188;28;20025;-76
2021/12/30 07:46:06;;;;;;;0.10;0.10;;;;;;;10.53;89.88;101380.56;5038708;28;20037;-74
2021/12/30 07:48:31;;;;;;;0.10;0.10;;;;;;;10.46;90.04;101391.63;5040566;28;20029;-79
2021/12/30 07:50:57;;;;;;;0.10;0.10;;;;;;;10.43;90.21;101384.56;5039519;28;20025;-76
2021/12/30 07:53:22;;;;;;;0.30;0.30;;;;;;;10.42;90.06;101385.38;5039533;28;20032;-74
2021/12/30 07:55:48;;;;;;;0.00;0.00;;;;;;;10.43;90.26;101384.56;5058930;28;20096;-76
2021/12/30 07:58:13;;;;;;;0.00;0.00;;;;;;;10.47;90.49;101388.19;5059514;28;20021;-73
2021/12/30 08:00:38;;;;;;;0.10;0.10;;;;;;;10.55;90.32;101399.84;5049474;28;20112;-73
2021/12/30 08:03:04;;;;;;;0.10;0.10;;;;;;;10.52;89.93;101391.88;5039781;28;20033;-76
2021/12/30 08:05:29;;;;;;;0.10;0.10;;;;;;;10.54;89.96;101384.97;5057770;28;20085;-79
2021/12/30 08:07:55;;;;;;;0.10;0.10;;;;;;;10.54;89.90;101383.22;5056883;28;20112;-76
2021/12/30 08:10:22;;;;;;;0.10;0.10;;;;;;;10.59;89.75;101401.75;5056966;28;20074;-76
2021/12/30 08:12:48;;;;;;;0.03;0.03;;;;;;;10.52;89.84;101403.22;5057495;28;20033;-79
2021/12/30 08:15:14;;;;;;;0.10;0.10;;;;;;;10.55;89.74;101419.06;5057656;28;20020;-76
2021/12/30 08:17:41;;;;;;;0.10;0.10;;;;;;;10.48;89.88;101410.91;5058551;28;20025;-77
2021/12/30 08:20:08;;;;;;;0.20;0.20;;;;;;;10.49;89.85;101420.53;5054912;28;20025;-75
2021/12/30 08:22:34;;;;;;;0.03;0.03;;;;;;;10.50;89.89;101404.00;5037991;28;20446;-80
2021/12/30 08:25:00;;;;;;;0.10;0.10;;;;;;;10.50;89.89;101425.84;5038503;28;20088;-72
2021/12/30 08:27:26;;;;;;;0.10;0.10;;;;;;;10.50;89.96;101420.59;5038667;28;20252;-76
2021/12/30 08:29:51;;;;;;;0.20;0.20;;;;;;;10.52;89.85;101431.16;5039549;28;20037;-78
2021/12/30 08:32:18;;;;;;;0.10;0.10;;;;;;;10.53;89.64;101425.94;5057786;28;20031;-69
2021/12/30 08:34:44;;;;;;;0.00;0.00;;;;;;;10.54;89.55;101416.38;5058008;28;20422;-74
2021/12/30 08:37:12;;;;;;;0.10;0.10;;;;;;;10.56;89.42;101417.31;5056323;28;20033;-77
2021/12/30 08:39:38;;;;;;;0.10;0.10;;;;;;;10.54;89.34;101424.25;5057813;28;20508;-77
2021/12/30 08:42:05;;;;;;;0.10;0.10;;;;;;;10.53;89.37;101406.75;5052701;28;20438;-75
2021/12/30 08:44:30;;;;;;;0.20;0.20;;;;;;;10.55;89.43;101428.63;5057153;28;20025;-77
2021/12/30 08:46:56;;;;;;;0.20;0.20;;;;;;;10.58;89.47;101419.16;5057274;28;20025;-73
2021/12/30 08:49:22;;;;;;;0.17;0.17;;;;;;;10.60;88.88;101427.09;5051152;28;20391;-77
2021/12/30 08:51:47;;;;;;;0.20;0.20;;;;;;;10.56;88.76;101449.66;5043227;28;20087;-73
2021/12/30 08:54:13;;;;;;;0.10;0.10;;;;;;;10.58;88.75;101447.97;5037818;28;20021;-76
2021/12/30 08:56:39;;;;;;;0.10;0.10;;;;;;;10.56;88.95;101443.50;5035890;28;20106;-77
2021/12/30 08:59:04;;;;;;;0.10;0.10;;;;;;;10.59;88.83;101441.03;5035671;28;20037;-72
2021/12/30 09:01:29;;;;;;;0.10;0.10;;;;;;;10.58;88.80;101440.13;5048647;28;20496;-77
2021/12/30 09:03:55;;;;;;;0.10;0.10;;;;;;;10.55;88.82;101424.31;5057685;28;20096;-78
2021/12/30 09:06:20;;;;;;;0.30;0.30;;;;;;;10.59;88.84;101443.66;5056760;28;20276;-77
2021/12/30 09:08:46;;;;;;;0.10;0.10;;;;;;;10.62;88.84;101446.38;5053469;28;20025;-77
2021/12/30 09:11:11;;;;;;;0.10;0.10;;;;;;;10.61;89.03;101439.34;5036786;28;20044;-75
2021/12/30 09:13:37;;;;;;;0.10;0.10;;;;;;;10.63;88.93;101453.38;5043504;28;20273;-76
2021/12/30 09:16:02;;;;;;;0.20;0.20;;;;;;;10.68;88.64;101449.22;5056383;28;20087;-73
2021/12/30 09:18:28;;;;;;;0.00;0.00;;;;;;;10.75;88.36;101455.56;5055094;28;20311;-76
2021/12/30 09:20:53;;;;;;;0.20;0.20;;;;;;;10.75;88.59;101450.34;5056271;28;20021;-74
2021/12/30 09:23:19;;;;;;;0.20;0.20;;;;;;;10.72;88.36;101451.09;5056631;28;20116;-72
2021/12/30 09:25:45;;;;;;;0.10;0.10;;;;;;;10.77;88.21;101467.00;5057014;28;20044;-77
2021/12/30 09:28:12;;;;;;;0.20;0.20;;;;;;;10.75;87.83;101459.91;5056607;28;20013;-73
2021/12/30 09:30:39;;;;;;;0.10;0.10;;;;;;;10.76;87.79;101462.59;5037744;28;20444;-77
2021/12/30 09:33:04;;;;;;;0.23;0.23;;;;;;;10.79;88.11;101457.50;5036077;28;20121;-74
2021/12/30 09:35:30;;;;;;;0.10;0.10;;;;;;;10.73;88.19;101449.41;5036844;28;20108;-78
2021/12/30 09:37:56;;;;;;;0.10;0.10;;;;;;;10.71;88.21;101465.03;5038399;28;20037;-78
2021/12/30 09:40:22;;;;;;;0.17;0.17;;;;;;;10.74;88.03;101469.50;5047448;28;20017;-75
2021/12/30 09:42:50;;;;;;;0.10;0.10;;;;;;;10.76;88.23;101459.09;5036746;28;20029;-77
2021/12/30 09:45:18;;;;;;;0.20;0.20;;;;;;;10.75;88.08;101463.44;5051540;28;20478;-76
2021/12/30 09:47:52;;;;;;;0.20;0.20;;;;;;;10.69;88.55;101463.19;5056300;28;20092;-78
2021/12/30 09:50:20;;;;;;;0.10;0.10;;;;;;;10.69;88.28;101455.34;5049880;28;20128;-73
2021/12/30 09:52:46;;;;;;;0.20;0.20;;;;;;;10.69;88.47;101487.69;5042988;28;20025;-78
2021/12/30 09:55:11;;;;;;;0.20;0.20;;;;;;;10.70;88.44;101476.38;5042942;28;20391;-80
2021/12/30 09:57:37;;;;;;;0.10;0.10;;;;;;;10.71;88.35;101474.66;5042255;28;20029;-74
2021/12/30 10:00:06;;;;;;;0.20;0.20;;;;;;;10.73;88.41;101475.59;5046160;28;20037;-73
2021/12/30 10:02:32;;;;;;;0.27;0.27;;;;;;;10.80;88.41;101463.59;5044922;28;20032;-78
2021/12/30 10:05:06;;;;;;;0.20;0.20;;;;;;;10.82;88.41;101473.31;5048783;28;20021;-77
2021/12/30 10:07:31;;;;;;;0.20;0.20;;;;;;;10.85;87.74;101477.78;5056131;28;20430;-74
2021/12/30 10:10:01;;;;;;;0.20;0.20;;;;;;;10.89;87.54;101481.41;5047034;28;20056;-73
2021/12/30 10:12:44;;;;;;;0.17;0.17;;;;;;;10.89;87.80;101476.16;5048332;28;20107;-77
2021/12/30 10:15:10;;;;;;;1.03;0.30;;;;;;;10.90;88.02;101472.72;5047950;28;20029;-74
2021/12/30 10:17:36;;;;;;;0.10;0.10;;;;;;;10.93;87.50;101472.81;5049352;28;20037;-76
2021/12/30 10:20:17;;;;;;;0.20;0.20;;;;;;;10.93;87.83;101476.34;5048603;28;20041;-80
2021/12/30 10:22:42;;;;;;;0.10;0.10;;;;;;;10.92;87.90;101476.28;5040407;28;20041;-80
2021/12/30 10:25:27;;;;;;;0.17;0.17;;;;;;;10.95;87.90;101476.38;5039460;28;20041;-80
2021/12/30 10:28:25;;;;;;;0.20;0.20;;;;;;;10.94;87.77;101491.22;5007967;28;10000567;-82
2021/12/30 10:30:54;;;;;;;0.20;0.20;;;;;;;10.90;87.97;101499.78;4500746;28;10001563;-77
2021/12/30 10:33:23;;;;;;;0.20;0.20;;;;;;;10.89;87.96;101489.28;5020079;28;20075;-79
2021/12/30 10:35:49;;;;;;;0.27;0.27;;;;;;;10.91;87.73;101495.44;5039155;28;20160;-80
2021/12/30 10:38:15;;;;;;;0.30;0.30;;;;;;;10.92;87.86;101494.63;5035828;28;20081;-73
2021/12/30 10:40:45;;;;;;;0.10;0.10;;;;;;;10.93;87.57;101496.38;5012554;28;20511;-73
2021/12/30 10:43:33;;;;;;;0.07;0.07;;;;;;;10.92;87.47;101511.25;5020000;28;20033;-75
2021/12/30 10:46:21;;;;;;;0.10;0.10;;;;;;;10.87;87.79;101499.69;5020154;28;20032;-77
2021/12/30 10:48:59;;;;;;;0.17;0.17;;;;;;;10.92;87.81;101500.75;5034293;28;20129;-75
2021/12/30 10:51:37;;;;;;;0.10;0.10;;;;;;;10.90;87.41;101509.38;5038309;28;20049;-78
2021/12/30 10:54:14;;;;;;;0.10;0.10;;;;;;;10.94;88.02;101506.94;5033173;28;20037;-78
2021/12/30 10:56:46;;;;;;;0.17;0.17;;;;;;;10.93;87.73;101513.03;5008072;28;20026;-74
2021/12/30 10:59:26;;;;;;;0.20;0.20;;;;;;;10.95;88.09;101510.44;5038636;28;20045;-78
2021/12/30 11:01:54;;;;;;;0.20;0.20;;;;;;;10.95;87.93;101510.44;5039451;28;20045;-80
2021/12/30 11:04:20;;;;;;;0.10;0.10;;;;;;;10.94;88.30;101517.41;5027012;28;20049;-78
2021/12/30 11:06:47;;;;;;;0.13;0.13;;;;;;;10.98;88.00;101500.97;5022047;28;20029;-77
2021/12/30 11:09:16;;;;;;;0.10;0.10;;;;;;;11.02;87.76;101504.59;5034084;28;20045;-77
2021/12/30 11:12:00;;;;;;;0.17;0.17;;;;;;;10.98;87.28;101494.84;5035086;28;20438;-76
2021/12/30 11:14:35;;;;;;;0.57;0.50;;;;;;;10.98;88.25;101536.78;5037159;28;20029;-77
2021/12/30 11:17:06;;;;;;;0.20;0.20;;;;;;;10.98;87.93;101506.19;5032389;28;20029;-79
2021/12/30 11:19:35;;;;;;;0.10;0.10;;;;;;;11.01;87.91;101528.13;5041472;28;20119;-76
2021/12/30 11:22:03;;;;;;;0.10;0.10;;;;;;;10.97;87.78;101519.28;5039399;28;20422;-72
2021/12/30 11:24:30;;;;;;;0.10;0.10;;;;;;;10.97;87.99;101514.03;5036339;28;20113;-75
2021/12/30 11:26:56;;;;;;;0.10;0.10;;;;;;;10.91;88.00;101522.56;5034785;28;20026;-73